Date,TemperatureHighF,TemperatureAvgF,TemperatureLowF,DewpointHighF,DewpointAvgF,DewpointLowF,HumidityHigh,HumidityAvg,HumidityLow,PressureMaxIn,PressureMinIn,WindSpeedMaxMPH,WindSpeedAvgMPH,GustSpeedMaxMPH,PrecipitationSumIn
2014-3-25,82,68,50,41,11,-100,59,22,1,29.94,29.60,11,-12,0,0.00
2014-3-26,79,58,42,47,36,23,98,52,16,29.68,29.27,16,6,0,0.00
2014-3-27,72,54,38,38,31,26,77,45,20,29.68,29.53,11,4,0,0.00
2014-3-28,72,56,36,34,26,19,66,34,17,29.91,29.67,15,5,0,0.00
2014-3-29,83,58,34,32,10,-32,54,26,1,30.00,29.77,8,3,0,0.00
2014-3-30,80,61,38,32,14,-39,57,24,1,29.80,29.54,17,4,0,0.00
2014-3-31,78,58,42,29,6,-38,43,22,1,29.81,29.65,10,4,0,0.00
2014-4-1,82,60,34,25,-4,-37,52,19,1,29.72,29.51,20,5,0,0.00
2014-4-2,78,59,38,22,-7,-44,35,15,1,29.60,29.40,20,6,0,0.00
2014-4-3,65,48,35,30,22,15,58,38,16,29.84,29.58,16,5,0,0.00
2014-4-4,76,52,30,32,12,-37,83,38,1,29.89,29.64,12,4,0,0.00
2014-4-5,79,55,42,38,24,-35,69,38,1,29.67,29.54,16,4,0,0.00
2014-4-6,72,52,32,37,29,13,95,50,16,29.72,29.59,17,4,0,0.00
2014-4-7,79,56,35,36,18,-35,92,40,1,29.93,29.72,16,5,0,0.00
2014-4-8,87,62,37,33,7,-37,60,25,1,30.04,29.87,8,2,0,0.00
2014-4-9,49,47,44,25,24,23,46,40,38,29.94,29.92,2,1,0,0.00
2014-4-12,76,68,61,36,28,-32,34,24,1,29.54,29.46,14,4,0,0.00
2014-4-13,90,63,45,43,11,-32,71,29,1,29.69,29.40,24,5,0,0.00
2014-4-14,67,51,39,38,27,21,77,42,21,29.94,29.69,11,4,0,0.00
2014-4-15,80,56,29,28,7,-35,71,30,1,29.93,29.64,9,3,0,0.00
2014-4-16,93,63,34,32,2,-35,51,20,1,29.69,29.53,13,3,0,0.00
2014-4-17,85,63,38,42,33,16,75,37,8,29.87,29.70,9,2,0,0.00
2014-4-18,88,67,43,47,30,-28,63,34,1,29.90,29.69,14,5,0,0.00
2014-4-19,74,58,46,54,48,43,98,71,44,29.88,29.77,10,3,0,0.00
2014-4-20,88,66,48,54,45,31,98,56,18,29.87,29.73,12,3,0,0.00
2014-4-21,99,72,45,51,29,-26,85,38,1,29.93,29.79,10,2,0,0.00
2014-4-22,90,74,58,52,43,2,60,36,4,29.86,29.57,14,5,0,0.00
2014-4-23,89,68,50,42,21,-33,62,27,1,29.70,29.49,16,5,0,0.00
2014-4-24,88,63,44,23,-1,-38,36,16,1,29.87,29.70,8,3,0,0.00
2014-4-25,94,68,36,27,-5,-36,51,14,1,29.79,29.53,11,3,0,0.00
2014-4-26,80,60,39,39,18,-33,79,30,1,29.58,29.33,23,6,0,0.00
2014-4-27,66,52,39,37,29,21,79,44,20,29.61,29.48,20,8,0,0.00
2014-4-28,68,53,35,29,1,-48,66,24,1,29.80,29.61,21,7,0,0.00
2014-4-29,75,54,36,5,-23,-47,24,6,1,29.90,29.79,10,4,0,0.00
2014-4-30,80,58,36,18,-6,-38,34,13,1,29.96,29.82,16,4,0,0.00
2014-5-1,81,60,45,19,-2,-35,30,13,1,29.99,29.80,12,4,0,0.00
2014-5-2,89,64,39,22,-3,-37,49,16,1,29.95,29.76,9,3,0,0.00
2014-5-3,97,71,43,18,-14,-39,34,8,1,29.90,29.72,8,3,0,0.00
2014-5-4,103,76,46,15,-15,-39,27,4,1,29.88,29.68,14,3,0,0.00
2014-5-5,99,75,49,11,-19,-40,20,3,1,29.83,29.60,9,2,0,0.00
2014-5-6,92,72,45,19,-20,-38,28,4,2,29.67,29.43,14,3,0,0.00
2014-5-7,84,66,52,-2,-29,-43,9,1,1,29.66,29.46,18,5,0,0.00
2014-5-8,78,57,42,37,13,-30,48,21,3,29.81,29.66,14,3,0,0.06
2014-5-9,86,63,36,29,-2,-35,74,22,2,29.85,29.63,10,3,0,0.00
2014-5-10,90,72,49,21,-8,-35,31,9,1,29.74,29.43,11,3,0,0.00
2014-5-11,88,70,52,19,-8,-40,25,7,1,29.64,29.33,20,6,0,0.00
2014-5-12,79,56,43,36,17,-30,67,28,3,29.93,29.66,8,3,0,0.00
2014-5-13,69,50,40,31,20,-1,71,35,6,30.13,29.93,18,4,0,0.00
2014-5-14,83,57,33,24,-3,-41,66,23,1,30.18,29.97,7,2,0,0.00
2014-5-15,92,65,34,20,-11,-37,49,12,1,30.04,29.84,12,3,0,0.00
2014-5-16,100,73,43,23,-11,-35,38,9,1,29.93,29.69,10,2,0,0.00
2014-5-17,103,79,60,29,-3,-32,27,7,1,29.83,29.63,7,3,0,0.00
2014-5-18,102,77,49,27,-10,-34,36,7,7,29.77,29.59,11,2,0,0.00
2014-5-19,99,76,48,11,-21,-42,20,3,1,29.75,29.58,16,4,0,0.00
2014-5-20,100,79,49,6,-23,-41,17,2,1,29.81,29.64,13,3,0,0.00
2014-5-21,94,75,52,16,-18,-40,23,4,1,29.83,29.66,14,4,0,0.00
2014-5-22,99,74,52,39,4,-38,41,15,1,29.87,29.70,11,3,0,0.00
2014-5-23,88,65,52,55,43,23,78,50,10,29.88,29.72,14,4,0,0.04
2014-5-24,87,63,50,50,41,30,78,48,15,29.84,29.71,13,4,0,0.04
2014-5-25,91,60,42,49,34,-24,78,54,1,29.84,29.75,10,2,0,0.24
2014-5-26,91,66,45,50,20,-50,78,29,7,29.88,29.76,8,2,0,0.01
2014-5-27,104,77,47,47,17,-26,78,29,5,29.92,29.75,10,2,0,0.00
2014-5-28,108,85,56,43,14,-25,57,17,2,29.89,29.70,13,4,0,0.00
2014-5-29,103,81,60,44,24,-21,51,20,2,29.84,29.71,10,2,0,0.00
2014-5-30,106,82,64,47,19,-24,47,20,1,29.87,29.69,7,2,0,0.00
2014-5-31,110,85,59,39,6,-25,42,13,1,29.83,29.64,8,2,0,0.00
2014-6-1,108,86,59,27,-5,-34,26,6,1,29.78,29.61,14,3,0,0.00
2014-6-2,111,86,54,44,0,-30,27,9,1,29.84,29.67,6,2,0,0.00
2014-6-3,112,79,55,55,8,-39,56,19,1,29.80,29.59,8,2,0,0.00
2014-6-4,90,68,38,28,-11,-46,46,14,1,29.77,29.57,10,2,0,0.00
2014-6-5,93,66,33,37,-4,-37,40,16,1,29.73,29.54,11,3,0,0.00
2014-6-6,93,67,43,45,2,-46,57,21,1,29.69,29.51,10,3,0,0.00
2014-6-7,83,59,39,44,35,10,76,42,20,29.74,29.58,14,5,0,0.00
2014-6-8,83,63,45,41,12,-42,62,28,1,29.77,29.53,11,5,0,0.00
2014-6-9,80,59,35,27,-11,-48,46,16,1,29.84,29.66,10,4,0,0.00
2014-6-10,86,61,30,29,-4,-42,63,21,1,29.84,29.63,8,3,0,0.00
2014-6-11,75,66,53,29,22,-33,27,19,1,29.72,29.62,11,5,0,0.00
2014-6-12,87,64,41,38,1,-39,55,20,1,29.84,29.68,11,3,0,0.00
2014-6-13,82,59,39,46,38,33,95,50,21,29.84,29.61,16,4,0,0.00
2014-6-14,81,62,38,37,3,-45,73,26,1,29.70,29.51,17,5,0,0.00
2014-6-15,84,60,28,20,-19,-46,46,11,1,29.77,29.59,7,2,0,0.00
2014-6-16,81,63,39,22,-16,-48,27,9,1,29.79,29.62,16,4,0,0.00
2014-6-17,82,61,40,46,22,-31,54,28,1,29.78,29.64,13,4,0,0.03
2014-6-18,78,59,39,37,28,2,64,35,5,29.77,29.65,14,4,0,0.00
2014-6-19,88,62,37,30,1,-38,52,22,1,29.87,29.74,9,2,0,0.00
2014-6-20,90,66,40,37,14,-32,48,23,1,29.89,29.71,10,3,0,0.00
2014-6-21,94,67,42,42,12,-36,72,28,1,29.81,29.64,10,2,0,0.00
2014-6-22,91,66,39,39,-1,-43,73,22,1,29.80,29.63,13,3,0,0.00
2014-6-23,90,65,41,37,9,-36,48,22,1,29.85,29.70,12,3,0,0.00
2014-6-24,88,67,42,39,7,-35,67,23,1,29.88,29.70,10,2,0,0.00
2014-6-25,88,67,43,42,10,-36,67,24,1,29.85,29.67,8,3,0,0.00
2014-6-26,93,67,38,37,-6,-41,60,18,1,29.79,29.56,12,3,0,0.00
2014-6-27,84,65,51,30,11,-40,32,18,1,29.70,29.53,11,4,0,0.00
2014-6-28,87,66,45,29,0,-34,43,17,1,29.75,29.62,11,3,0,0.00
2014-6-29,98,69,40,32,4,-29,50,21,1,29.84,29.67,6,1,0,0.00
2014-6-30,100,72,46,34,2,-33,46,18,1,29.78,29.61,10,2,0,0.00
2014-7-1,82,65,48,45,37,26,59,37,23,29.86,29.69,16,5,0,0.00
2014-7-2,85,64,50,44,39,33,65,42,21,29.95,29.81,18,5,0,0.00
2014-7-3,88,63,41,48,42,28,98,57,15,30.07,29.80,15,4,0,0.39
2014-7-4,83,62,43,48,42,35,98,54,24,30.01,29.87,15,3,0,0.01
2014-7-5,89,64,44,48,44,39,98,57,20,30.00,29.85,10,3,0,0.26
2014-7-6,90,64,43,50,44,37,98,56,20,29.95,29.78,8,2,0,0.00
2014-7-7,90,67,42,50,42,34,98,49,18,29.90,29.73,7,2,0,0.00
2014-7-8,86,64,45,48,40,35,77,44,23,29.95,29.80,17,5,0,0.00
2014-7-9,89,64,44,49,42,34,82,50,19,29.96,29.78,13,4,0,0.05
2014-7-10,88,64,43,49,42,38,92,51,20,29.89,29.74,11,2,0,0.00
2014-7-11,93,65,46,50,44,39,83,52,18,29.94,29.75,9,2,0,0.06
2014-7-12,86,55,42,52,46,41,98,76,30,29.95,29.89,4,2,0,0.00
2014-7-14,89,72,47,49,44,40,98,41,22,29.99,29.82,14,5,0,0.09
2014-7-15,80,55,42,49,44,41,98,71,33,30.03,29.79,9,2,0,0.20
2014-7-16,84,57,42,50,43,26,98,66,29,29.88,29.69,16,3,0,0.77
2014-7-17,86,62,41,52,43,22,98,57,24,29.82,29.69,14,3,0,0.00
2014-7-18,90,66,42,52,42,-25,98,50,1,29.85,29.71,9,3,0,0.00
2014-7-19,93,67,49,50,43,37,78,46,21,29.85,29.76,8,3,0,0.00
2014-7-20,94,67,44,48,41,35,83,45,16,29.88,29.75,9,2,0,0.00
2014-7-21,94,69,50,47,39,-21,65,38,1,29.92,29.80,6,2,0,0.00
2014-7-22,96,68,48,49,40,-20,98,43,1,30.02,29.86,19,3,0,0.22
2014-7-23,87,63,43,53,46,37,98,58,27,30.03,29.91,7,2,0,0.00
2014-7-24,91,67,43,47,34,-26,89,41,1,30.00,29.82,9,2,0,0.00
2014-7-25,96,71,46,41,32,-23,56,30,1,29.91,29.74,7,2,0,0.00
2014-7-26,96,71,47,44,33,-24,59,32,1,29.89,29.74,14,2,0,0.00
2014-7-27,92,63,52,53,43,38,80,51,21,29.98,29.84,15,4,0,0.11
2014-7-28,84,61,47,50,44,41,86,58,28,30.06,29.91,12,4,0,0.00
2014-7-29,86,58,44,54,49,43,98,78,30,30.00,29.82,13,2,0,0.42
2014-7-30,86,67,46,49,45,42,98,50,25,29.91,29.78,13,5,0,0.00
2014-7-31,81,57,44,52,46,40,98,70,36,29.98,29.85,8,4,0,0.15
2014-8-1,82,58,38,49,43,-50,98,64,1,29.96,29.84,10,3,0,1.52
2014-8-2,68,53,41,48,42,36,98,71,37,30.01,29.89,9,5,0,0.19
2014-8-3,81,57,42,50,44,37,98,65,34,29.99,29.88,9,3,0,0.01
2014-8-4,83,59,43,51,46,42,98,70,32,29.95,29.84,9,3,0,0.03
2014-8-5,85,61,41,51,45,40,98,62,28,29.96,29.82,7,2,0,0.00
2014-8-6,89,64,40,51,39,-24,98,50,1,29.91,29.78,9,2,0,0.00
2014-8-7,69,52,42,46,40,34,98,67,39,29.90,29.80,16,3,0,0.00
2014-8-8,84,58,35,50,42,33,98,61,29,29.89,29.76,8,2,0,0.00
2014-8-9,85,61,38,50,40,28,98,53,19,29.90,29.77,9,2,0,0.00
2014-8-10,82,58,38,46,40,35,93,57,27,30.00,29.86,14,3,0,0.00
2014-8-11,82,61,44,47,41,36,88,52,27,30.03,29.91,11,3,0,0.00
2014-8-12,88,64,44,50,43,39,87,51,24,30.03,29.84,7,3,0,0.00
2014-8-13,82,58,46,54,45,40,85,63,33,29.96,29.87,10,2,0,0.00
2014-8-14,82,59,44,53,46,42,98,68,34,29.94,29.80,6,2,0,0.01
2014-8-15,85,60,42,50,45,40,98,63,27,29.92,29.77,7,2,0,0.16
2014-8-16,89,63,39,51,42,34,98,56,19,29.92,29.78,10,2,0,0.01
2014-8-17,92,63,42,48,41,36,87,50,16,29.93,29.81,10,2,0,0.00
2014-8-18,90,64,41,48,39,34,87,47,19,29.87,29.71,7,2,0,0.00
2014-8-19,90,63,42,46,38,-29,79,46,1,29.79,29.64,10,2,0,0.00
2014-8-20,83,61,46,48,39,32,79,50,20,29.81,29.71,9,2,0,0.00
2014-8-21,90,62,38,39,30,-31,81,40,1,29.86,29.74,7,2,0,0.00
2014-8-22,65,48,37,47,40,35,98,77,48,29.94,29.80,6,2,0,0.20
2014-8-23,78,55,34,50,36,-54,98,57,1,29.87,29.73,7,2,0,0.01
2014-8-24,86,60,36,48,38,30,98,51,20,29.85,29.73,8,2,0,0.00
2014-8-25,88,62,40,45,38,32,81,47,20,29.87,29.76,6,2,0,0.00
2014-8-26,81,55,41,48,42,37,90,64,32,29.94,29.86,7,2,0,0.00
2014-8-27,82,55,39,50,42,17,98,66,30,29.98,29.85,11,2,0,0.09
2014-8-28,77,54,33,41,35,31,98,53,25,29.92,29.78,11,3,0,0.00
2014-8-29,84,58,34,42,34,30,91,46,19,29.87,29.76,5,2,0,0.00
2014-8-30,84,60,37,42,34,26,75,43,16,29.89,29.71,8,2,0,0.00
2014-8-31,85,64,45,38,28,-28,55,32,1,29.82,29.67,11,4,0,0.00
2014-9-1,89,64,40,37,29,-25,66,34,1,29.83,29.69,8,2,0,0.00
2014-9-2,94,62,36,36,14,-31,80,34,1,29.86,29.69,7,2,0,0.00
2014-9-3,93,63,38,37,15,-30,69,31,1,29.80,29.65,6,2,0,0.00
2014-9-4,90,62,42,47,29,-28,82,43,1,29.83,29.66,10,2,0,0.00
2014-9-5,82,57,41,48,42,36,87,61,27,29.92,29.79,9,3,0,0.00
2014-9-6,73,54,43,46,41,37,94,65,39,29.99,29.87,12,5,0,0.00
2014-9-7,79,57,38,47,41,36,98,60,29,29.97,29.78,12,3,0,0.00
2014-9-8,84,58,41,51,45,41,98,69,32,29.88,29.73,9,3,0,0.05
2014-9-9,84,61,47,51,44,37,98,61,26,29.81,29.65,13,4,0,0.01
2014-9-10,77,58,46,45,36,26,75,47,21,29.82,29.74,10,4,0,0.00
2014-9-11,83,57,36,46,35,25,78,47,21,29.88,29.73,7,2,0,0.00
2014-9-12,63,47,35,43,37,29,98,71,46,29.98,29.83,11,4,0,0.00
2014-9-13,73,49,30,43,34,27,90,61,34,30.03,29.83,9,3,0,0.00
2014-9-14,75,54,36,48,41,35,98,64,36,29.95,29.80,11,3,0,0.00
2014-9-15,81,56,39,50,44,38,98,68,32,29.97,29.80,14,3,0,0.05
2014-9-16,66,50,43,48,44,40,98,81,52,29.98,29.87,8,3,0,0.00
2014-9-17,55,46,41,50,44,40,98,92,69,29.90,29.77,5,1,0,0.14
2014-9-18,80,53,35,48,42,32,98,71,29,29.80,29.66,8,2,0,0.00
2014-9-19,82,57,43,51,45,42,98,70,33,29.81,29.70,7,2,0,0.00
2014-9-20,83,58,39,52,43,34,98,65,23,29.88,29.76,10,3,0,0.00
2014-9-21,73,56,48,49,44,41,86,65,39,29.98,29.87,14,6,0,0.00
2014-9-22,79,56,47,52,45,41,98,71,34,29.98,29.84,10,3,0,0.00
2014-9-23,76,54,37,51,44,36,98,73,37,29.96,29.81,7,2,0,0.00
2014-9-24,82,58,37,50,42,34,98,62,28,29.96,29.82,10,2,0,0.00
2014-9-25,83,55,38,48,42,37,98,67,27,29.97,29.81,12,3,0,0.10
2014-9-26,72,51,35,48,41,31,98,72,39,29.92,29.75,9,2,0,0.01
2014-9-27,69,52,38,43,38,34,96,63,38,29.84,29.67,11,4,0,0.00
2014-9-28,70,52,41,46,38,34,85,61,34,29.83,29.71,9,4,0,0.00
2014-9-29,66,48,35,46,35,21,98,64,34,29.80,29.64,14,3,0,0.00
2014-9-30,71,44,22,32,24,20,98,53,20,29.78,29.62,11,2,0,0.00
2014-10-1,71,46,22,33,24,20,98,50,18,29.74,29.59,11,3,0,0.00
2014-10-2,62,44,30,26,7,-50,64,33,1,29.94,29.71,14,5,0,0.00
2014-10-3,69,44,22,21,6,-38,60,33,1,30.05,29.90,6,2,0,0.00
2014-10-4,74,46,21,24,15,-35,79,37,1,29.98,29.76,12,3,0,0.00
2014-10-5,71,49,29,26,13,-37,58,33,1,29.85,29.71,12,4,0,0.00
2014-10-6,75,49,24,30,8,-38,77,33,1,29.89,29.73,9,3,0,0.00
2014-10-7,76,48,26,26,9,-34,63,35,1,29.89,29.75,5,1,0,0.00
2014-10-8,58,45,33,41,27,16,98,51,30,29.85,29.74,7,1,0,0.00
2014-10-9,65,42,30,46,38,24,98,85,50,29.77,29.69,8,2,0,0.11
2014-10-10,54,41,34,39,36,34,98,85,53,29.91,29.76,7,2,0,0.07
2014-10-11,67,45,32,42,36,31,98,75,39,29.93,29.76,8,2,0,0.00
2014-10-12,62,42,30,35,24,4,98,55,16,29.78,29.50,24,7,0,0.00
2014-10-13,60,37,16,25,15,9,85,45,20,29.96,29.78,8,3,0,0.00
2014-10-14,65,37,13,22,15,10,93,50,16,30.02,29.87,6,1,0,0.00
2014-10-15,66,38,14,28,20,13,98,57,21,29.98,29.80,6,1,0,0.00
2014-10-16,75,44,21,33,24,18,96,54,20,29.90,29.74,5,1,0,0.00
2014-10-17,71,44,23,30,24,19,85,52,17,29.87,29.76,10,2,0,0.00
2014-10-18,63,46,34,35,31,26,81,57,35,29.89,29.77,9,4,0,0.00
2014-10-19,66,39,26,40,31,25,98,77,38,29.89,29.82,8,2,0,0.00
2014-10-20,69,38,23,40,32,22,98,83,33,29.91,29.81,16,2,0,0.19
2014-10-21,65,43,29,41,34,28,98,76,40,29.87,29.74,8,2,0,0.00
2014-10-22,68,44,28,43,33,28,98,71,29,29.90,29.79,5,1,0,0.00
2014-10-23,71,42,22,40,29,22,98,67,25,29.98,29.85,6,1,0,0.00
2014-10-24,74,43,21,31,25,20,98,60,19,30.03,29.88,6,1,0,0.00
2014-10-25,73,43,19,35,25,17,98,57,19,30.02,29.83,5,1,0,0.00
2014-10-26,73,45,26,41,30,23,94,59,31,29.87,29.66,8,1,0,0.00
2014-10-27,67,47,28,34,26,17,78,48,22,29.81,29.64,8,2,0,0.00
2014-10-28,63,38,22,27,19,15,74,53,19,29.95,29.81,5,1,0,0.00
2014-10-29,66,37,14,19,5,-40,88,46,1,30.00,29.87,6,1,0,0.00